Nora, Indiana
Current Conditions -  °F | °C
As of 3:53 PM on Tuesday 27 Jan 2015 (Local Time) from KEYE Reporting Station
Clear Clear  
Wind Chill: 25°   Ceiling: Unl
Heat Index: 31°   Visibility: 10mi
Dew Point: 11°   Wind: 6mph
Humidity: 43%   Direction: 330°NNW
Pressure: 30.13"   Gusts: NA
Location:  39.8971°N, 86.18°W
Report Text: KEYE 272053Z AUTO 33005KT 10SM CLR M01/M12 A3013 RMK AO2 SLP213 T10061117 53009
Loading
Personal Weather Stations






























Interactive Weather Map New forecast layout! Learn more

10-Day Weather Forecast

Advertisements
Track Severe Weather on mobile